Time;durP1;ratioP1;P1;durP2;ratioP2;P2;SDS_P1;SDS_P2;PMS_P1;PMS_P2;Temp;Humidity;BMP_temperature;BMP_pressure;BME280_temperature;BME280_humidity;BME280_pressure;Samples;Min_cycle;Max_cycle;Signal;HPM_P1;HPM_P2
2022/11/05 00:09:29;;;;;;;18.20;10.95;;;8.30;99.90;;;;;;5080302;28;20041;-67
2022/11/05 00:17:32;;;;;;;25.48;13.35;;;8.30;99.90;;;;;;5071705;28;20120;-68
2022/11/05 00:19:58;;;;;;;23.90;11.80;;;8.20;99.90;;;;;;5067490;28;20045;-68
2022/11/05 00:25:17;;;;;;;26.48;12.80;;;8.00;99.90;;;;;;5068011;28;20059;-68
2022/11/05 00:27:49;;;;;;;25.67;10.93;;;8.00;99.90;;;;;;5067615;28;20040;-67
2022/11/05 00:30:18;;;;;;;33.30;12.70;;;8.00;99.90;;;;;;5065927;28;20093;-68
2022/11/05 00:32:46;;;;;;;21.00;10.98;;;8.00;99.90;;;;;;5067014;28;20499;-67
2022/11/05 00:35:12;;;;;;;24.30;11.52;;;8.00;99.90;;;;;;5066574;28;20048;-67
2022/11/05 00:37:38;;;;;;;24.33;10.90;;;8.00;99.90;;;;;;5065753;28;20502;-68
2022/11/05 00:40:04;;;;;;;;;;;8.10;99.90;;;;;;5066407;28;20086;-69
2022/11/05 00:45:14;;;;;;;22.08;10.60;;;8.00;99.90;;;;;;5066685;28;20028;-68
2022/11/05 00:50:24;;;;;;;25.17;9.63;;;8.00;99.90;;;;;;5066359;28;19916;-68
2022/11/05 00:52:58;;;;;;;;;;;8.00;99.90;;;;;;5067375;28;20182;-69
2022/11/05 00:55:30;;;;;;;20.42;8.68;;;8.00;99.90;;;;;;5065766;28;19927;-68
2022/11/05 00:57:56;;;;;;;19.75;9.32;;;8.10;99.90;;;;;;5066392;28;20044;-68
2022/11/05 01:00:23;;;;;;;24.65;9.70;;;8.10;99.90;;;;;;5065188;28;20040;-68
2022/11/05 01:02:49;;;;;;;21.88;10.80;;;8.10;99.90;;;;;;5066635;28;20032;-69
2022/11/05 01:05:14;;;;;;;;;;;8.10;99.90;;;;;;5066148;28;20086;-69
2022/11/05 01:07:40;;;;;;;19.98;10.70;;;8.00;99.90;;;;;;5066602;28;19916;-69
2022/11/05 01:10:06;;;;;;;18.05;9.02;;;8.00;99.90;;;;;;5066014;28;20068;-68
2022/11/05 01:12:32;;;;;;;;;;;8.00;99.90;;;;;;5067556;28;20064;-68
2022/11/05 01:14:57;;;;;;;17.20;8.10;;;7.90;99.90;;;;;;5067115;28;19971;-67
2022/11/05 01:17:23;;;;;;;10.93;6.32;;;7.90;99.90;;;;;;5066582;28;20512;-68
2022/11/05 01:19:49;;;;;;;;;;;7.80;99.90;;;;;;5067329;28;20040;-67
2022/11/05 01:22:15;;;;;;;9.43;3.28;;;7.80;99.90;;;;;;5065730;28;20307;-67
2022/11/05 01:24:41;;;;;;;;;;;7.80;99.90;;;;;;5065399;28;20044;-67
2022/11/05 01:27:06;;;;;;;5.90;2.30;;;7.80;99.90;;;;;;5065989;28;20047;-67
2022/11/05 01:29:32;;;;;;;7.57;2.42;;;7.80;99.90;;;;;;5063455;28;20040;-68
2022/11/05 01:31:57;;;;;;;;;;;7.80;99.90;;;;;;5065313;28;20036;-67
2022/11/05 01:34:23;;;;;;;6.57;3.38;;;7.80;99.90;;;;;;5065899;28;19923;-67
2022/11/05 01:36:48;;;;;;;;;;;7.70;99.90;;;;;;5067697;28;20032;-68
2022/11/05 01:39:14;;;;;;;13.18;3.78;;;7.80;99.90;;;;;;5064993;28;19927;-67
2022/11/05 01:41:40;;;;;;;;;;;7.70;99.90;;;;;;5066737;28;20614;-68
2022/11/05 01:44:46;;;;;;;6.75;3.38;;;7.80;99.90;;;;;;5065103;28;19924;-68
2022/11/05 01:47:32;;;;;;;12.77;3.60;;;7.70;99.90;;;;;;5064464;28;20044;-67
2022/11/05 01:50:01;;;;;;;10.02;4.60;;;7.70;99.90;;;;;;5065090;28;20033;-67
2022/11/05 01:52:30;;;;;;;10.77;5.30;;;7.70;99.90;;;;;;5061616;28;20101;-67
2022/11/05 01:54:56;;;;;;;10.73;4.25;;;7.70;99.90;;;;;;5066113;28;20048;-67
2022/11/05 01:57:21;;;;;;;8.95;3.70;;;7.70;99.90;;;;;;5063985;28;20044;-67
2022/11/05 01:59:49;;;;;;;;;;;7.70;99.90;;;;;;5065677;28;20066;-68
2022/11/05 02:02:16;;;;;;;7.40;3.00;;;7.70;99.90;;;;;;5063860;28;19916;-67
2022/11/05 02:04:53;;;;;;;6.68;2.90;;;7.60;99.90;;;;;;5063692;28;20044;-68
2022/11/05 02:07:20;;;;;;;9.00;3.92;;;7.70;99.90;;;;;;5064478;28;20500;-67
2022/11/05 02:10:02;;;;;;;6.72;3.63;;;7.70;99.90;;;;;;5064859;28;20389;-68
2022/11/05 02:12:28;;;;;;;12.10;4.28;;;7.60;99.90;;;;;;5062363;28;20555;-67
2022/11/05 02:14:56;;;;;;;12.68;4.03;;;7.70;99.90;;;;;;5066533;28;20107;-69
2022/11/05 02:18:02;;;;;;;8.07;3.17;;;7.70;99.90;;;;;;5064923;28;20075;-68
2022/11/05 02:20:55;;;;;;;9.93;3.22;;;7.70;99.90;;;;;;5064571;28;20581;-67
2022/11/05 02:23:58;;;;;;;12.00;3.28;;;7.70;99.90;;;;;;5062555;28;20741;-67
2022/11/05 02:26:52;;;;;;;14.93;4.72;;;7.60;99.90;;;;;;5061994;28;20051;-67
2022/11/05 02:29:41;;;;;;;13.93;5.68;;;7.60;99.90;;;;;;5063783;28;20706;-67
2022/11/05 02:32:28;;;;;;;12.63;5.47;;;7.60;99.90;;;;;;5095045;28;20040;-68
2022/11/05 02:35:10;;;;;;;16.05;6.13;;;7.60;99.90;;;;;;5065633;22;20135;-68
2022/11/05 02:37:39;;;;;;;15.18;6.47;;;7.60;99.90;;;;;;5052505;28;20048;-68
2022/11/05 02:40:37;;;;;;;20.10;6.97;;;7.60;99.90;;;;;;5050034;28;20060;-67
2022/11/05 02:43:15;;;;;;;17.27;6.05;;;7.50;99.90;;;;;;5041013;28;20067;-68
2022/11/05 02:46:02;;;;;;;24.95;7.05;;;7.50;99.90;;;;;;5052843;28;20131;-68
2022/11/05 02:48:37;;;;;;;15.60;7.00;;;7.50;99.90;;;;;;5048744;28;20128;-68
2022/11/05 02:51:17;;;;;;;16.63;7.28;;;7.50;99.90;;;;;;5053985;28;20032;-68
2022/11/05 02:53:57;;;;;;;19.23;6.80;;;7.40;99.90;;;;;;5045426;28;20464;-68
2022/11/05 02:56:34;;;;;;;16.73;6.88;;;7.40;99.90;;;;;;5042816;28;20132;-67
2022/11/05 02:58:59;;;;;;;17.40;7.25;;;7.30;99.90;;;;;;5043819;28;20037;-68
2022/11/05 03:01:25;;;;;;;;;;;7.30;99.90;;;;;;5061527;28;20148;-68
2022/11/05 03:03:54;;;;;;;16.52;6.72;;;7.30;99.90;;;;;;5047819;28;19932;-68
2022/11/05 03:06:38;;;;;;;20.60;7.03;;;7.30;99.90;;;;;;5053926;28;20059;-68
2022/11/05 03:09:17;;;;;;;15.35;7.03;;;7.30;99.90;;;;;;5041900;28;20041;-67
2022/11/05 03:12:08;;;;;;;13.40;7.70;;;7.20;99.90;;;;;;5057108;28;20040;-67
2022/11/05 03:15:05;;;;;;;15.05;7.18;;;7.20;99.90;;;;;;5051308;28;20120;-67
2022/11/05 03:17:43;;;;;;;22.17;7.72;;;7.20;99.90;;;;;;5053267;28;20056;-68
2022/11/05 03:20:16;;;;;;;19.30;8.13;;;7.10;99.90;;;;;;5047941;28;20488;-68
2022/11/05 03:23:02;;;;;;;15.68;6.75;;;7.10;99.90;;;;;;5057045;28;20063;-68
2022/11/05 03:25:31;;;;;;;31.45;10.00;;;7.00;99.90;;;;;;5043913;28;20067;-68
2022/11/05 03:28:03;;;;;;;31.83;7.65;;;7.00;99.90;;;;;;5055179;28;20052;-67
2022/11/05 03:30:31;;;;;;;22.38;8.52;;;7.00;99.90;;;;;;5044322;28;20036;-67
2022/11/05 03:33:02;;;;;;;15.23;7.60;;;7.00;99.90;;;;;;5050885;28;20049;-67
2022/11/05 03:35:36;;;;;;;20.20;8.50;;;6.90;99.90;;;;;;5051596;28;20095;-67
2022/11/05 03:38:09;;;;;;;14.73;7.13;;;6.90;99.90;;;;;;5054349;28;20102;-68
2022/11/05 03:40:37;;;;;;;23.38;7.68;;;6.90;99.90;;;;;;5052376;28;20072;-70
2022/11/05 03:43:07;;;;;;;20.92;8.68;;;6.90;99.90;;;;;;5051285;28;20380;-68
2022/11/05 03:45:45;;;;;;;27.52;9.10;;;7.00;99.90;;;;;;5050279;28;20120;-68
2022/11/05 03:48:14;;;;;;;18.38;8.07;;;6.80;99.90;;;;;;5051632;28;20045;-69
2022/11/05 03:51:05;;;;;;;22.30;8.98;;;6.90;99.90;;;;;;5043123;28;20041;-68
2022/11/05 03:53:37;;;;;;;16.00;7.90;;;6.80;99.90;;;;;;5046886;28;20052;-68
2022/11/05 03:56:11;;;;;;;20.30;8.25;;;6.90;99.90;;;;;;5054112;28;20044;-69
2022/11/05 03:58:43;;;;;;;20.70;7.68;;;6.90;99.90;;;;;;5056246;28;20045;-68
2022/11/05 04:01:09;;;;;;;18.83;7.28;;;7.00;99.90;;;;;;5046493;28;20029;-69
2022/11/05 04:03:37;;;;;;;20.30;8.18;;;7.00;99.90;;;;;;5048099;28;20132;-68
2022/11/05 04:14:18;;;;;;;20.95;7.20;;;7.10;99.90;;;;;;5050503;28;20040;-68
2022/11/05 04:24:57;;;;;;;16.92;6.85;;;7.30;99.90;;;;;;5047922;28;20569;-68
2022/11/05 04:27:23;;;;;;;;;;;7.30;99.90;;;;;;5056454;28;20195;-68
2022/11/05 04:32:33;;;;;;;16.35;6.47;;;7.30;99.90;;;;;;5052417;28;20037;-69
2022/11/05 04:34:59;;;;;;;;;;;7.30;99.90;;;;;;5052867;28;20043;-69
2022/11/05 04:37:24;;;;;;;18.17;7.63;;;7.30;99.90;;;;;;5055021;28;20388;-68
2022/11/05 04:39:50;;;;;;;;;;;7.30;99.90;;;;;;5053741;28;20484;-69
2022/11/05 04:42:16;;;;;;;17.65;7.13;;;7.30;99.90;;;;;;5052582;28;19970;-69
2022/11/05 04:44:41;;;;;;;21.17;6.75;;;7.20;99.90;;;;;;5053208;28;20041;-68
2022/11/05 04:47:07;;;;;;;;;;;7.20;99.90;;;;;;5059884;28;20041;-68
2022/11/05 04:49:32;;;;;;;18.95;6.70;;;7.20;99.90;;;;;;5054488;28;19966;-69
2022/11/05 04:51:58;;;;;;;;;;;7.20;99.90;;;;;;5059124;28;20798;-68
2022/11/05 04:54:23;;;;;;;26.40;7.65;;;7.30;99.90;;;;;;5047592;28;19921;-69
2022/11/05 04:56:49;;;;;;;;;;;7.20;99.90;;;;;;5051453;28;20037;-69
2022/11/05 04:59:15;;;;;;;29.42;9.30;;;7.30;99.90;;;;;;5050563;28;19917;-68
2022/11/05 05:01:40;;;;;;;;;;;7.20;99.90;;;;;;5048722;28;20392;-68
2022/11/05 05:04:06;;;;;;;16.92;7.78;;;7.20;99.90;;;;;;5059272;28;20365;-68
2022/11/05 05:06:32;;;;;;;;;;;7.20;99.90;;;;;;5058480;28;20048;-69
2022/11/05 05:08:57;;;;;;;15.43;7.60;;;7.20;99.90;;;;;;5051350;28;19921;-68
2022/11/05 05:11:23;;;;;;;;;;;7.10;99.90;;;;;;5062567;28;20063;-69
2022/11/05 05:13:49;;;;;;;20.88;8.43;;;7.10;99.90;;;;;;5049425;28;20288;-69
2022/11/05 05:16:25;;;;;;;20.35;8.45;;;7.00;99.90;;;;;;5060975;28;20047;-69
2022/11/05 05:18:52;;;;;;;16.85;7.78;;;7.00;99.90;;;;;;5041624;28;20037;-69
2022/11/05 05:21:38;;;;;;;15.65;7.32;;;7.00;99.90;;;;;;5051382;28;20044;-69
2022/11/05 05:24:10;;;;;;;13.82;6.68;;;7.10;99.90;;;;;;5045802;28;20120;-68
2022/11/05 05:26:37;;;;;;;14.80;6.95;;;7.10;99.90;;;;;;5048672;28;20068;-68
2022/11/05 05:29:04;;;;;;;20.00;8.13;;;7.00;99.90;;;;;;5051710;28;20401;-69
2022/11/05 05:31:30;;;;;;;18.67;7.45;;;7.00;99.90;;;;;;5045019;28;20029;-69
2022/11/05 05:33:56;;;;;;;;;;;7.10;99.90;;;;;;5050637;28;20044;-69
2022/11/05 05:36:23;;;;;;;15.32;6.60;;;7.10;99.90;;;;;;5055180;28;19916;-68
2022/11/05 05:38:48;;;;;;;21.67;6.85;;;7.10;99.90;;;;;;5046532;28;20182;-68
2022/11/05 05:41:14;;;;;;;;;;;7.10;99.90;;;;;;5049757;28;20032;-69
2022/11/05 05:43:40;;;;;;;17.33;7.22;;;7.10;99.90;;;;;;5058437;28;19924;-68
2022/11/05 05:46:08;;;;;;;15.95;6.90;;;7.10;99.90;;;;;;5055991;28;20040;-69
2022/11/05 05:48:34;;;;;;;18.75;6.47;;;7.00;99.90;;;;;;5054541;28;20052;-68
2022/11/05 05:51:01;;;;;;;;;;;7.00;99.90;;;;;;5046209;28;20479;-68
2022/11/05 05:53:27;;;;;;;13.15;5.88;;;7.00;99.90;;;;;;5038904;28;19916;-68
2022/11/05 05:55:54;;;;;;;17.67;6.28;;;7.10;99.90;;;;;;5045083;28;20509;-63
2022/11/05 05:58:19;;;;;;;16.42;6.55;;;7.10;99.90;;;;;;5044297;28;20392;-64
2022/11/05 06:00:45;;;;;;;;;;;7.00;99.90;;;;;;5054091;28;20040;-64
2022/11/05 06:03:10;;;;;;;10.35;5.20;;;7.00;99.90;;;;;;5050136;28;19925;-65
2022/11/05 06:05:36;;;;;;;;;;;7.00;99.90;;;;;;5045563;28;20405;-61
2022/11/05 06:08:02;;;;;;;21.08;6.38;;;7.00;99.90;;;;;;5042945;28;19935;-68
2022/11/05 06:10:27;;;;;;;10.90;4.88;;;7.00;99.90;;;;;;5052512;28;20748;-68
2022/11/05 06:12:53;;;;;;;;;;;7.10;99.90;;;;;;5052290;28;20041;-67
2022/11/05 06:15:20;;;;;;;16.35;4.95;;;7.10;99.90;;;;;;5045953;28;19913;-67
2022/11/05 06:17:45;;;;;;;15.10;6.22;;;7.00;99.90;;;;;;5045731;28;20075;-68
2022/11/05 06:20:11;;;;;;;;;;;7.00;99.90;;;;;;5051706;28;20068;-68
2022/11/05 06:22:38;;;;;;;16.13;5.68;;;7.10;99.90;;;;;;5052279;28;19920;-67
2022/11/05 06:25:05;;;;;;;12.13;5.13;;;7.10;99.90;;;;;;5051167;28;20037;-68
2022/11/05 06:27:30;;;;;;;11.02;5.10;;;7.10;99.90;;;;;;5054906;28;20044;-68
2022/11/05 06:29:56;;;;;;;;;;;7.10;99.90;;;;;;5041356;28;20419;-68
2022/11/05 06:32:22;;;;;;;12.65;5.63;;;7.10;99.90;;;;;;5043430;28;19921;-67
2022/11/05 06:34:48;;;;;;;;;;;7.10;99.90;;;;;;5056249;28;20045;-63
2022/11/05 06:37:13;;;;;;;18.50;4.78;;;7.10;99.90;;;;;;5042078;28;19916;-66
2022/11/05 06:39:39;;;;;;;;;;;7.00;99.90;;;;;;5047132;28;20064;-67
2022/11/05 06:42:05;;;;;;;12.45;4.82;;;7.00;99.90;;;;;;5059189;28;20379;-67
2022/11/05 06:44:30;;;;;;;;;;;7.00;99.90;;;;;;5049777;28;20052;-70
2022/11/05 06:46:56;;;;;;;10.30;4.30;;;7.00;99.90;;;;;;5058695;28;19924;-67
2022/11/05 06:49:24;;;;;;;12.18;4.55;;;7.00;99.90;;;;;;5045855;28;20158;-69
2022/11/05 06:51:51;;;;;;;13.10;5.05;;;7.00;99.90;;;;;;5048421;28;20488;-70
2022/11/05 06:54:16;;;;;;;12.07;5.18;;;7.00;99.90;;;;;;5044190;28;20163;-68
2022/11/05 06:56:42;;;;;;;;;;;6.90;99.90;;;;;;5050875;28;20482;-68
2022/11/05 06:59:07;;;;;;;11.57;3.97;;;6.90;99.90;;;;;;5042727;28;20522;-67
2022/11/05 07:01:34;;;;;;;;;;;6.90;99.90;;;;;;5055895;28;20357;-67
2022/11/05 07:03:59;;;;;;;8.93;3.70;;;6.90;99.90;;;;;;5043645;28;19936;-67
2022/11/05 07:06:26;;;;;;;;;;;6.80;99.90;;;;;;5044667;28;20033;-67
2022/11/05 07:08:52;;;;;;;9.70;3.30;;;6.80;99.90;;;;;;5041177;28;20290;-68
2022/11/05 07:11:18;;;;;;;8.38;3.33;;;6.80;99.90;;;;;;5042540;28;20286;-67
2022/11/05 07:13:44;;;;;;;;;;;6.80;99.90;;;;;;5042068;28;20040;-66
2022/11/05 07:16:09;;;;;;;7.10;3.03;;;6.80;99.90;;;;;;5044837;28;19924;-67
2022/11/05 07:18:35;;;;;;;7.50;3.35;;;6.80;99.90;;;;;;5042448;28;20039;-67
2022/11/05 07:21:01;;;;;;;7.28;2.97;;;6.90;99.90;;;;;;5044357;28;20041;-68
2022/11/05 07:23:27;;;;;;;;;;;6.90;99.90;;;;;;5051065;28;20049;-67
2022/11/05 07:25:52;;;;;;;14.05;3.25;;;7.00;99.90;;;;;;5049150;28;20269;-67
2022/11/05 07:28:18;;;;;;;;;;;7.00;99.90;;;;;;5052578;28;20059;-66
2022/11/05 07:30:44;;;;;;;12.13;3.47;;;7.20;99.90;;;;;;5047950;28;19917;-67
2022/11/05 07:33:10;;;;;;;9.15;3.80;;;7.20;99.90;;;;;;5050046;28;20082;-68
2022/11/05 07:35:35;;;;;;;;;;;7.20;99.90;;;;;;5055329;28;20033;-68
2022/11/05 07:38:02;;;;;;;13.02;3.13;;;7.20;99.90;;;;;;5059837;28;20015;-68
2022/11/05 07:40:28;;;;;;;;;;;7.20;99.90;;;;;;5058833;28;20047;-68
2022/11/05 07:42:56;;;;;;;6.20;3.10;;;7.20;99.90;;;;;;5055880;28;20299;-69
2022/11/05 07:45:23;;;;;;;9.00;3.83;;;7.20;99.90;;;;;;5051883;28;20049;-68
2022/11/05 07:47:51;;;;;;;11.73;3.97;;;7.30;99.90;;;;;;5048494;28;20055;-68
2022/11/05 07:50:19;;;;;;;12.80;3.35;;;7.30;99.90;;;;;;5052825;28;20062;-66
2022/11/05 07:52:46;;;;;;;6.70;3.95;;;7.40;99.90;;;;;;5055661;28;20455;-67
2022/11/05 07:55:12;;;;;;;7.43;3.42;;;7.40;99.90;;;;;;5052408;28;20051;-68
2022/11/05 07:57:49;;;;;;;14.25;3.95;;;7.50;99.90;;;;;;5048204;28;20090;-68
2022/11/05 08:00:20;;;;;;;14.65;3.63;;;7.50;99.90;;;;;;5046095;28;20045;-67
2022/11/05 08:03:11;;;;;;;8.35;3.85;;;7.50;99.90;;;;;;5046301;28;20059;-68
2022/11/05 08:05:39;;;;;;;10.18;4.53;;;7.60;99.90;;;;;;5050639;28;20480;-68
2022/11/05 08:08:07;;;;;;;13.60;5.18;;;7.60;99.90;;;;;;5057335;28;20062;-68
2022/11/05 08:10:33;;;;;;;11.27;4.95;;;7.60;99.90;;;;;;5053903;28;20467;-68
2022/11/05 08:12:59;;;;;;;8.57;4.15;;;7.70;99.90;;;;;;5055750;28;20036;-68
2022/11/05 08:15:25;;;;;;;13.88;4.60;;;7.60;99.90;;;;;;5053572;28;20095;-67
2022/11/05 08:18:02;;;;;;;;;;;7.70;99.90;;;;;;5062052;28;20037;-67
2022/11/05 08:20:28;;;;;;;9.43;3.83;;;7.70;99.90;;;;;;5051977;28;19917;-68
2022/11/05 08:22:54;;;;;;;10.10;3.50;;;7.70;99.90;;;;;;5057804;28;20104;-68
2022/11/05 08:25:20;;;;;;;8.57;3.40;;;7.80;99.90;;;;;;5047832;28;20181;-68
2022/11/05 08:27:46;;;;;;;;;;;7.90;99.90;;;;;;5059776;28;20540;-68
2022/11/05 08:30:11;;;;;;;9.40;3.47;;;7.80;99.90;;;;;;5053129;28;20952;-68
2022/11/05 08:32:37;;;;;;;7.82;3.55;;;7.80;99.90;;;;;;5056157;28;20072;-68
2022/11/05 08:35:03;;;;;;;;;;;7.80;99.90;;;;;;5054613;28;20044;-68
2022/11/05 08:37:29;;;;;;;8.40;3.35;;;7.90;99.90;;;;;;5056699;28;19921;-68
2022/11/05 08:39:54;;;;;;;6.18;3.17;;;8.00;99.90;;;;;;5049847;28;20090;-67
2022/11/05 08:42:20;;;;;;;;;;;8.00;99.90;;;;;;5048097;28;20077;-67
2022/11/05 08:44:46;;;;;;;16.00;4.65;;;7.90;99.90;;;;;;5051215;28;20600;-68
2022/11/05 08:47:11;;;;;;;;;;;8.00;99.90;;;;;;5060325;28;20101;-68
2022/11/05 08:49:38;;;;;;;11.30;3.63;;;7.90;99.90;;;;;;5050337;28;19921;-68
2022/11/05 08:52:03;;;;;;;10.80;4.35;;;7.90;99.90;;;;;;5054138;28;20033;-69
2022/11/05 08:54:29;;;;;;;;;;;7.90;99.90;;;;;;5045653;28;20197;-66
2022/11/05 08:56:55;;;;;;;8.98;4.30;;;7.80;99.90;;;;;;5045353;28;19916;-67
2022/11/05 08:59:20;;;;;;;;;;;7.80;99.90;;;;;;5046266;28;20547;-64
2022/11/05 09:01:46;;;;;;;11.15;5.35;;;7.80;99.90;;;;;;5044479;28;19916;-68
2022/11/05 09:04:12;;;;;;;;;;;7.80;99.90;;;;;;5043584;28;20036;-65
2022/11/05 09:06:38;;;;;;;11.88;5.15;;;7.80;99.90;;;;;;5039798;28;20312;-66
2022/11/05 09:09:06;;;;;;;8.85;4.60;;;7.80;99.90;;;;;;5043867;28;20075;-66
2022/11/05 09:11:32;;;;;;;9.38;5.40;;;7.90;99.90;;;;;;5046246;28;20409;-67
2022/11/05 09:13:58;;;;;;;;;;;7.90;99.90;;;;;;5047259;28;20041;-67
2022/11/05 09:16:25;;;;;;;9.98;4.10;;;7.90;99.90;;;;;;5058102;28;19923;-67
2022/11/05 09:18:51;;;;;;;13.90;5.43;;;8.00;99.90;;;;;;5040848;28;20043;-67
2022/11/05 09:21:17;;;;;;;;;;;8.10;99.90;;;;;;5058315;28;20036;-66
2022/11/05 09:23:44;;;;;;;12.37;4.37;;;8.10;99.90;;;;;;5044623;28;19916;-67
2022/11/05 09:26:10;;;;;;;10.73;4.35;;;8.10;99.90;;;;;;5047075;28;20037;-68
2022/11/05 09:28:36;;;;;;;12.48;4.45;;;8.30;99.90;;;;;;5050381;28;20119;-67
2022/11/05 09:31:09;;;;;;;;;;;8.40;99.90;;;;;;5050905;28;20051;-67
2022/11/05 09:33:36;;;;;;;12.35;4.30;;;8.30;99.90;;;;;;5052342;28;20010;-67
2022/11/05 09:36:03;;;;;;;14.38;4.18;;;8.10;99.90;;;;;;5053068;28;20044;-67
2022/11/05 09:38:31;;;;;;;9.27;4.00;;;8.00;99.90;;;;;;5048791;28;20724;-67
2022/11/05 09:41:01;;;;;;;15.68;4.30;;;7.80;99.90;;;;;;5045001;28;20045;-68
2022/11/05 09:43:37;;;;;;;9.73;4.25;;;7.90;99.90;;;;;;5054373;28;20428;-66
2022/11/05 09:46:30;;;;;;;10.90;4.25;;;7.90;99.90;;;;;;5054272;28;20040;-67
2022/11/05 09:49:03;;;;;;;8.68;3.85;;;7.90;99.90;;;;;;5039160;28;20082;-68
2022/11/05 09:51:30;;;;;;;13.82;4.45;;;8.10;99.90;;;;;;5053822;28;20086;-67
2022/11/05 09:53:58;;;;;;;12.38;4.18;;;8.20;99.90;;;;;;5045944;28;20044;-67
2022/11/05 09:56:33;;;;;;;13.02;4.85;;;8.20;99.90;;;;;;5046669;28;20114;-68
2022/11/05 09:59:14;;;;;;;16.50;5.28;;;8.30;99.90;;;;;;5044286;28;20048;-67
2022/11/05 10:01:42;;;;;;;10.38;4.45;;;8.30;99.90;;;;;;5057592;28;20044;-67
2022/11/05 10:04:15;;;;;;;15.10;4.85;;;8.40;99.90;;;;;;5048591;28;20044;-68
2022/11/05 10:06:48;;;;;;;11.02;4.18;;;8.40;99.90;;;;;;5057480;28;20440;-67
2022/11/05 10:09:30;;;;;;;13.07;4.63;;;8.30;99.90;;;;;;5044977;28;20044;-67
2022/11/05 10:12:17;;;;;;;16.77;5.10;;;8.30;99.90;;;;;;5048406;28;20396;-67
2022/11/05 10:14:46;;;;;;;;;;;8.30;99.90;;;;;;5049473;28;20081;-67
2022/11/05 10:17:23;;;;;;;11.63;4.38;;;8.40;99.90;;;;;;5059594;28;19970;-67
2022/11/05 10:20:16;;;;;;;14.00;4.72;;;8.50;99.90;;;;;;5049986;28;20072;-67
2022/11/05 10:22:41;;;;;;;9.57;4.65;;;8.50;99.90;;;;;;5041083;28;20041;-66
2022/11/05 10:25:29;;;;;;;;;;;8.60;99.90;;;;;;5041386;28;20033;-67
2022/11/05 10:27:55;;;;;;;7.80;3.40;;;8.60;99.90;;;;;;5049117;28;19920;-66
2022/11/05 10:30:22;;;;;;;8.32;4.55;;;8.60;99.90;;;;;;5046890;28;20116;-67
2022/11/05 10:32:52;;;;;;;11.02;4.50;;;8.60;99.90;;;;;;5051833;28;20037;-67
2022/11/05 10:35:21;;;;;;;12.57;4.28;;;8.70;99.90;;;;;;5047598;28;20035;-68
2022/11/05 10:37:54;;;;;;;15.38;4.50;;;8.60;99.90;;;;;;5061594;28;20036;-67
2022/11/05 10:40:51;;;;;;;13.70;5.05;;;8.60;99.90;;;;;;5050131;28;20044;-67
2022/11/05 10:43:29;;;;;;;9.25;4.30;;;8.60;99.90;;;;;;5047781;28;20033;-67
2022/11/05 10:46:17;;;;;;;12.50;4.82;;;8.50;99.90;;;;;;5048408;28;20052;-67
2022/11/05 10:49:07;;;;;;;13.63;5.32;;;8.50;99.90;;;;;;5044558;28;20067;-67
2022/11/05 10:51:32;;;;;;;12.80;4.25;;;8.50;99.90;;;;;;5050085;28;20029;-66
2022/11/05 10:54:11;;;;;;;;;;;8.60;99.90;;;;;;5047020;28;20496;-67
2022/11/05 10:56:39;;;;;;;11.93;4.20;;;8.50;99.90;;;;;;5047596;28;19925;-66
2022/11/05 10:59:23;;;;;;;8.60;4.03;;;8.60;99.90;;;;;;5045003;28;20041;-66
2022/11/05 11:02:29;;;;;;;11.57;3.90;;;8.60;99.90;;;;;;5038802;28;20052;-67
2022/11/05 11:04:57;;;;;;;8.75;4.05;;;8.80;99.90;;;;;;5040226;28;20404;-67
2022/11/05 11:07:24;;;;;;;10.60;4.35;;;8.90;99.90;;;;;;5058804;28;20044;-64
2022/11/05 11:09:51;;;;;;;8.70;3.53;;;9.10;99.90;;;;;;5044864;28;20043;-67
2022/11/05 11:12:26;;;;;;;6.45;3.63;;;9.10;99.90;;;;;;5056897;28;20043;-67
2022/11/05 11:15:11;;;;;;;6.70;3.30;;;9.30;99.90;;;;;;5045706;28;20032;-66
2022/11/05 11:17:37;;;;;;;10.98;3.03;;;9.50;99.90;;;;;;5057458;28;20048;-66
2022/11/05 11:20:15;;;;;;;;;;;9.40;99.90;;;;;;5050234;28;20055;-66
2022/11/05 11:22:40;;;;;;;8.73;3.05;;;9.60;99.90;;;;;;5053460;28;20007;-66
2022/11/05 11:25:32;;;;;;;;;;;9.60;99.90;;;;;;5049614;28;20024;-68
2022/11/05 11:28:03;;;;;;;5.95;3.20;;;9.60;99.90;;;;;;5035453;28;20563;-66
2022/11/05 11:30:29;;;;;;;6.90;3.38;;;9.50;99.90;;;;;;5042778;28;20131;-64
2022/11/05 11:32:57;;;;;;;;;;;9.50;99.90;;;;;;5040140;28;20691;-65
2022/11/05 11:35:25;;;;;;;12.05;3.20;;;9.60;99.90;;;;;;5041152;28;20586;-65
2022/11/05 11:37:55;;;;;;;8.68;3.38;;;9.50;99.90;;;;;;5039466;28;20048;-65
2022/11/05 11:40:29;;;;;;;10.25;3.72;;;9.60;99.90;;;;;;5044122;28;20053;-66
2022/11/05 11:43:02;;;;;;;10.15;3.53;;;9.50;99.90;;;;;;5045127;28;20052;-65
2022/11/05 11:45:32;;;;;;;8.27;2.85;;;9.40;99.90;;;;;;5043944;28;20128;-67
2022/11/05 11:48:03;;;;;;;6.40;2.88;;;9.40;99.90;;;;;;5053029;28;20044;-66
2022/11/05 11:50:40;;;;;;;10.45;3.30;;;9.50;99.90;;;;;;5056310;28;20687;-66
2022/11/05 11:53:28;;;;;;;9.98;2.80;;;9.60;99.90;;;;;;5053491;28;20035;-66
2022/11/05 11:55:59;;;;;;;8.90;3.25;;;9.80;99.90;;;;;;5045963;28;20552;-64
2022/11/05 11:58:45;;;;;;;7.45;2.72;;;9.70;99.90;;;;;;5048040;28;20112;-66
2022/11/05 12:01:26;;;;;;;7.43;3.10;;;9.70;99.90;;;;;;5052460;28;20531;-64
2022/11/05 12:04:12;;;;;;;11.18;3.70;;;9.70;99.90;;;;;;5044628;28;20094;-65
2022/11/05 12:06:45;;;;;;;7.82;3.13;;;9.60;99.90;;;;;;5056899;28;20167;-66
2022/11/05 12:09:26;;;;;;;5.10;2.85;;;9.70;99.90;;;;;;5029462;28;20049;-65
2022/11/05 12:12:03;;;;;;;7.50;3.30;;;9.60;99.90;;;;;;5046685;28;20123;-65
2022/11/05 12:15:21;;;;;;;7.85;2.88;;;9.40;99.90;;;;;;5043628;28;20044;-65
2022/11/05 12:18:01;;;;;;;13.07;4.28;;;9.50;99.90;;;;;;5044718;28;20056;-65
2022/11/05 12:20:45;;;;;;;11.82;4.25;;;9.50;99.90;;;;;;5045894;28;20041;-70
2022/11/05 12:23:20;;;;;;;8.75;3.70;;;9.50;99.90;;;;;;5055922;28;20033;-68
2022/11/05 12:26:23;;;;;;;9.82;3.75;;;9.40;99.90;;;;;;5048670;28;20040;-68
2022/11/05 12:29:26;;;;;;;10.00;3.75;;;9.10;99.90;;;;;;5058923;28;20125;-68
2022/11/05 12:32:13;;;;;;;8.15;4.10;;;8.90;99.90;;;;;;5049826;28;20041;-68
2022/11/05 12:34:38;;;;;;;14.23;4.22;;;8.70;99.90;;;;;;5049758;28;20037;-68
2022/11/05 12:37:23;;;;;;;;;;;8.70;99.90;;;;;;5059519;28;20463;-68
2022/11/05 12:39:55;;;;;;;9.00;3.75;;;8.60;99.90;;;;;;5051726;28;20402;-69
2022/11/05 12:42:31;;;;;;;8.00;3.85;;;8.50;99.90;;;;;;5055981;28;20045;-69
2022/11/05 12:45:20;;;;;;;12.02;3.75;;;8.50;99.90;;;;;;5051434;28;20044;-69
2022/11/05 12:48:13;;;;;;;6.60;4.13;;;8.60;99.90;;;;;;5059761;28;20404;-69
2022/11/05 12:50:43;;;;;;;6.50;3.65;;;8.70;99.90;;;;;;5055893;28;20064;-69
2022/11/05 12:53:26;;;;;;;8.48;4.13;;;8.80;99.90;;;;;;5051500;28;20045;-68
2022/11/05 12:55:54;;;;;;;12.20;3.97;;;9.10;99.90;;;;;;5071450;28;20074;-69
2022/11/05 12:58:35;;;;;;;6.85;3.60;;;9.20;99.90;;;;;;5058020;28;20041;-69
2022/11/05 13:01:11;;;;;;;11.40;3.58;;;9.20;99.90;;;;;;5048925;28;20079;-69
2022/11/05 13:03:46;;;;;;;;;;;9.20;99.90;;;;;;5045627;28;20041;-69
2022/11/05 13:06:26;;;;;;;11.32;4.40;;;9.10;99.90;;;;;;5046112;28;19922;-68
2022/11/05 13:09:03;;;;;;;11.10;3.83;;;9.10;99.90;;;;;;5041270;28;20080;-68
2022/11/05 13:12:04;;;;;;;7.72;3.92;;;9.00;99.90;;;;;;5042388;28;20065;-68
2022/11/05 13:14:40;;;;;;;10.95;4.45;;;8.90;99.90;;;;;;5046520;28;20163;-68
2022/11/05 13:17:33;;;;;;;7.40;4.57;;;8.80;99.90;;;;;;5051150;28;20040;-68
2022/11/05 13:20:14;;;;;;;13.25;4.78;;;8.70;99.90;;;;;;5039344;28;20341;-68
2022/11/05 13:22:55;;;;;;;9.07;2.97;;;8.70;99.90;;;;;;5043472;28;20041;-68
2022/11/05 13:25:24;;;;;;;11.02;4.28;;;8.70;99.90;;;;;;5044838;28;20033;-68
2022/11/05 13:28:11;;;;;;;8.85;3.33;;;8.70;99.90;;;;;;5045150;28;20051;-68
2022/11/05 13:30:42;;;;;;;8.98;3.92;;;8.70;99.90;;;;;;5042241;28;20033;-67
2022/11/05 13:33:13;;;;;;;7.63;3.53;;;8.70;99.90;;;;;;5054799;28;20036;-67
2022/11/05 13:39:05;;;;;;;9.30;3.00;;;8.80;99.90;;;;;;5049642;28;20041;-67
2022/11/05 13:41:50;;;;;;;7.93;3.22;;;8.70;99.90;;;;;;5055884;28;20600;-68
2022/11/05 13:44:50;;;;;;;11.65;3.00;;;8.70;99.90;;;;;;5048359;28;20040;-67
2022/11/05 13:47:28;;;;;;;10.10;3.20;;;8.70;99.90;;;;;;5042385;28;20056;-68
2022/11/05 13:50:35;;;;;;;5.70;2.72;;;8.60;99.90;;;;;;5044772;28;20117;-68
2022/11/05 13:53:25;;;;;;;6.53;2.28;;;8.70;99.90;;;;;;5012412;28;20496;-68
2022/11/05 13:56:31;;;;;;;8.00;2.97;;;8.60;99.90;;;;;;5048833;28;20032;-69
2022/11/05 13:59:17;;;;;;;3.72;2.17;;;8.60;99.90;;;;;;5036380;28;20041;-69
2022/11/05 14:01:51;;;;;;;6.80;2.22;;;8.70;99.90;;;;;;5056654;28;20036;-69
2022/11/05 14:04:30;;;;;;;5.70;2.65;;;8.70;99.90;;;;;;5048762;28;20041;-69
2022/11/05 14:07:18;;;;;;;8.50;2.53;;;8.70;99.90;;;;;;5048405;28;20033;-68
2022/11/05 14:09:45;;;;;;;8.85;2.28;;;8.70;99.90;;;;;;5049587;28;20124;-68
2022/11/05 14:12:44;;;;;;;7.28;2.50;;;8.70;99.90;;;;;;5053890;28;20740;-68
2022/11/05 14:15:20;;;;;;;8.95;2.22;;;8.70;99.90;;;;;;5041460;28;20055;-69
2022/11/05 14:17:53;;;;;;;12.35;3.50;;;8.70;99.90;;;;;;5047742;28;20045;-68